createdAt,value
2022-10-22T00:00:58.266Z,1007.77
2022-10-22T00:02:02.618Z,1007.78
2022-10-22T00:03:07.034Z,1007.78
2022-10-22T00:04:11.257Z,1007.76
2022-10-22T00:05:15.640Z,1007.75
2022-10-22T00:06:19.955Z,1007.74
2022-10-22T00:07:24.362Z,1007.74
2022-10-22T00:08:28.760Z,1007.74
2022-10-22T00:09:33.031Z,1007.74
2022-10-22T00:10:37.361Z,1007.75
2022-10-22T00:11:41.784Z,1007.74
2022-10-22T00:12:46.192Z,1007.75
2022-10-22T00:13:50.444Z,1007.75
2022-10-22T00:14:54.778Z,1007.74
2022-10-22T00:15:59.205Z,1007.75
2022-10-22T00:17:04.230Z,1007.78
2022-10-22T00:18:07.790Z,1007.79
2022-10-22T00:19:12.160Z,1007.80
2022-10-22T00:20:16.549Z,1007.81
2022-10-22T00:21:20.612Z,1007.79
2022-10-22T00:22:25.133Z,1007.81
2022-10-22T00:23:29.432Z,1007.81
2022-10-22T00:24:33.743Z,1007.81
2022-10-22T00:25:38.076Z,1007.78
2022-10-22T00:26:42.491Z,1007.73
2022-10-22T00:27:46.797Z,1007.71
2022-10-22T00:28:51.141Z,1007.68
2022-10-22T00:29:55.498Z,1007.65
2022-10-22T00:30:59.927Z,1007.64
2022-10-22T00:32:04.216Z,1007.62
2022-10-22T00:33:08.563Z,1007.61
2022-10-22T00:34:12.967Z,1007.62
2022-10-22T00:35:17.226Z,1007.63
2022-10-22T00:36:21.603Z,1007.63
2022-10-22T00:37:25.945Z,1007.64
2022-10-22T00:38:30.233Z,1007.66
2022-10-22T00:39:34.569Z,1007.63
2022-10-22T00:40:38.917Z,1007.61
2022-10-22T00:41:43.207Z,1007.62
2022-10-22T00:42:47.575Z,1007.61
2022-10-22T00:43:51.888Z,1007.62
2022-10-22T00:44:56.221Z,1007.64
2022-10-22T00:46:00.556Z,1007.64
2022-10-22T00:47:04.820Z,1007.65
2022-10-22T00:48:09.297Z,1007.64
2022-10-22T00:49:13.530Z,1007.64
2022-10-22T00:50:17.894Z,1007.63
2022-10-22T00:51:22.312Z,1007.63
2022-10-22T00:52:26.587Z,1007.61
2022-10-22T00:53:30.915Z,1007.63
2022-10-22T00:54:35.271Z,1007.63
2022-10-22T00:55:39.518Z,1007.66
2022-10-22T00:56:43.884Z,1007.63
2022-10-22T00:57:48.274Z,1007.61
2022-10-22T00:58:52.596Z,1007.63
2022-10-22T00:59:56.921Z,1007.61
2022-10-22T01:01:01.451Z,1007.62
2022-10-22T01:02:05.617Z,1007.65
2022-10-22T01:03:13.017Z,1007.64
2022-10-22T01:04:16.476Z,1007.66
2022-10-22T01:05:20.632Z,1007.64
2022-10-22T01:06:24.999Z,1007.64
2022-10-22T01:07:29.339Z,1007.64
2022-10-22T01:08:33.700Z,1007.64
2022-10-22T01:09:38.006Z,1007.63
2022-10-22T01:10:42.414Z,1007.63
2022-10-22T01:11:46.697Z,1007.63
2022-10-22T01:12:50.943Z,1007.64
2022-10-22T01:13:55.392Z,1007.63
2022-10-22T01:14:59.761Z,1007.64
2022-10-22T01:16:04.095Z,1007.66
2022-10-22T01:17:08.607Z,1007.69
2022-10-22T01:18:12.797Z,1007.72
2022-10-22T01:19:17.059Z,1007.75
2022-10-22T01:20:21.510Z,1007.74
2022-10-22T01:21:25.872Z,1007.77
2022-10-22T01:22:30.002Z,1007.76
2022-10-22T01:23:34.536Z,1007.75
2022-10-22T01:24:38.858Z,1007.76
2022-10-22T01:25:43.216Z,1007.76
2022-10-22T01:26:47.364Z,1007.78
2022-10-22T01:27:51.826Z,1007.78
2022-10-22T01:28:56.162Z,1007.77
2022-10-22T01:30:00.491Z,1007.78
2022-10-22T01:31:04.868Z,1007.78
2022-10-22T01:32:09.280Z,1007.75
2022-10-22T01:33:13.467Z,1007.72
2022-10-22T01:34:17.861Z,1007.70
2022-10-22T01:35:22.287Z,1007.65
2022-10-22T01:36:26.622Z,1007.62
2022-10-22T01:37:30.925Z,1007.58
2022-10-22T01:38:35.255Z,1007.55
2022-10-22T01:39:39.667Z,1007.52
2022-10-22T01:40:44.079Z,1007.50
2022-10-22T01:41:48.406Z,1007.47
2022-10-22T01:42:52.747Z,1007.47
2022-10-22T01:43:57.081Z,1007.45
2022-10-22T01:45:01.521Z,1007.48
2022-10-22T01:46:05.780Z,1007.48
2022-10-22T01:47:10.199Z,1007.49
2022-10-22T01:48:14.415Z,1007.52
2022-10-22T01:49:18.873Z,1007.52
2022-10-22T01:50:23.166Z,1007.53
2022-10-22T01:51:27.501Z,1007.58
2022-10-22T01:52:31.774Z,1007.59
2022-10-22T01:53:36.182Z,1007.61
2022-10-22T01:54:40.509Z,1007.63
2022-10-22T01:55:44.809Z,1007.66
2022-10-22T01:56:49.173Z,1007.68
2022-10-22T01:57:53.579Z,1007.73
2022-10-22T01:58:57.890Z,1007.75
2022-10-22T02:00:02.309Z,1007.78
2022-10-22T02:01:06.467Z,1007.81
2022-10-22T02:02:10.849Z,1007.86
2022-10-22T02:03:17.469Z,1007.85
2022-10-22T02:04:19.470Z,1007.83
2022-10-22T02:05:23.911Z,1007.81
2022-10-22T02:06:28.317Z,1007.80
2022-10-22T02:07:32.646Z,1007.79
2022-10-22T02:08:37.075Z,1007.76
2022-10-22T02:09:41.358Z,1007.76
2022-10-22T02:10:45.796Z,1007.77
2022-10-22T02:11:50.144Z,1007.76
2022-10-22T02:12:54.544Z,1007.75
2022-10-22T02:13:58.849Z,1007.71
2022-10-22T02:15:03.279Z,1007.70
2022-10-22T02:16:07.689Z,1007.71
2022-10-22T02:17:12.012Z,1007.72
2022-10-22T02:18:16.403Z,1007.75
2022-10-22T02:19:20.682Z,1007.79
2022-10-22T02:20:25.076Z,1007.81
2022-10-22T02:21:29.432Z,1007.84
2022-10-22T02:22:33.746Z,1007.84
2022-10-22T02:23:38.204Z,1007.86
2022-10-22T02:24:42.485Z,1007.90
2022-10-22T02:25:46.910Z,1007.92
2022-10-22T02:26:51.232Z,1007.93
2022-10-22T02:27:55.647Z,1007.93
2022-10-22T02:28:59.954Z,1007.92
2022-10-22T02:30:04.365Z,1007.91
2022-10-22T02:31:08.739Z,1007.90
2022-10-22T02:32:12.966Z,1007.91
2022-10-22T02:33:17.485Z,1007.91
2022-10-22T02:34:21.751Z,1007.93
2022-10-22T02:35:26.156Z,1007.95
2022-10-22T02:36:30.567Z,1007.96
2022-10-22T02:37:34.872Z,1007.96
2022-10-22T02:38:39.161Z,1007.95
2022-10-22T02:39:43.488Z,1007.94
2022-10-22T02:40:47.803Z,1007.94
2022-10-22T02:41:52.220Z,1007.93
2022-10-22T02:42:56.570Z,1007.94
2022-10-22T02:44:00.893Z,1007.94
2022-10-22T02:45:05.315Z,1007.95
2022-10-22T02:46:09.704Z,1007.94
2022-10-22T02:47:13.990Z,1007.93
2022-10-22T02:48:18.437Z,1007.94
2022-10-22T02:49:22.797Z,1007.93
2022-10-22T02:50:27.171Z,1007.92
2022-10-22T02:51:31.540Z,1007.93
2022-10-22T02:52:35.897Z,1007.91
2022-10-22T02:53:40.074Z,1007.90
2022-10-22T02:54:44.568Z,1007.91
2022-10-22T02:55:48.867Z,1007.87
2022-10-22T02:56:53.166Z,1007.86
2022-10-22T02:57:57.512Z,1007.85
2022-10-22T02:59:01.841Z,1007.85
2022-10-22T03:00:06.166Z,1007.85
2022-10-22T03:01:13.716Z,1007.85
2022-10-22T03:02:14.835Z,1007.85
2022-10-22T03:03:19.234Z,1007.85
2022-10-22T03:04:23.357Z,1007.83
2022-10-22T03:05:27.752Z,1007.81
2022-10-22T03:06:32.126Z,1007.78
2022-10-22T03:07:36.551Z,1007.77
2022-10-22T03:08:40.869Z,1007.77
2022-10-22T03:09:45.243Z,1007.80
2022-10-22T03:10:49.479Z,1007.82
2022-10-22T03:11:53.968Z,1007.80
2022-10-22T03:12:58.236Z,1007.82
2022-10-22T03:14:02.676Z,1007.85
2022-10-22T03:15:06.998Z,1007.86
2022-10-22T03:16:11.234Z,1007.89
2022-10-22T03:17:15.638Z,1007.93
2022-10-22T03:18:20.000Z,1007.96
2022-10-22T03:19:24.345Z,1007.97
2022-10-22T03:20:28.761Z,1007.97
2022-10-22T03:21:33.083Z,1008.01
2022-10-22T03:22:37.500Z,1008.00
2022-10-22T03:23:41.819Z,1008.01
2022-10-22T03:24:46.147Z,1008.04
2022-10-22T03:25:50.665Z,1008.02
2022-10-22T03:26:54.895Z,1008.02
2022-10-22T03:27:59.336Z,1008.02
2022-10-22T03:29:03.439Z,1008.04
2022-10-22T03:30:07.990Z,1008.05
2022-10-22T03:31:15.404Z,1008.07
2022-10-22T03:32:18.828Z,1008.05
2022-10-22T03:33:23.224Z,1008.06
2022-10-22T03:34:27.533Z,1008.08
2022-10-22T03:35:31.921Z,1008.08
2022-10-22T03:36:36.334Z,1008.08
2022-10-22T03:37:41.006Z,1008.08
2022-10-22T03:38:44.766Z,1008.07
2022-10-22T03:39:49.131Z,1008.05
2022-10-22T03:40:53.589Z,1008.05
2022-10-22T03:41:57.967Z,1008.08
2022-10-22T03:43:02.264Z,1008.11
2022-10-22T03:44:06.586Z,1008.10
2022-10-22T03:45:10.901Z,1008.12
2022-10-22T03:46:15.323Z,1008.11
2022-10-22T03:47:19.657Z,1008.10
2022-10-22T03:48:23.963Z,1008.11
2022-10-22T03:49:28.434Z,1008.10
2022-10-22T03:50:32.752Z,1008.07
2022-10-22T03:51:37.163Z,1008.08
2022-10-22T03:52:41.480Z,1008.05
2022-10-22T03:53:45.912Z,1008.06
2022-10-22T03:54:50.298Z,1008.06
2022-10-22T03:55:54.684Z,1008.05
2022-10-22T03:56:59.000Z,1008.06
2022-10-22T03:58:03.353Z,1008.05
2022-10-22T03:59:07.804Z,1008.05
2022-10-22T04:00:12.134Z,1008.06
2022-10-22T04:01:16.579Z,1008.06
2022-10-22T04:02:20.946Z,1008.04
2022-10-22T04:03:25.274Z,1008.05
2022-10-22T04:04:29.725Z,1008.04
2022-10-22T04:05:34.036Z,1008.06
2022-10-22T04:06:38.408Z,1008.06
2022-10-22T04:07:43.006Z,1008.07
2022-10-22T04:08:47.149Z,1008.08
2022-10-22T04:09:51.424Z,1008.11
2022-10-22T04:10:55.885Z,1008.12
2022-10-22T04:12:00.226Z,1008.14
2022-10-22T04:13:04.573Z,1008.15
2022-10-22T04:14:08.993Z,1008.16
2022-10-22T04:15:13.175Z,1008.17
2022-10-22T04:16:17.556Z,1008.14
2022-10-22T04:17:21.913Z,1008.15
2022-10-22T04:18:26.276Z,1008.17
2022-10-22T04:19:30.614Z,1008.18
2022-10-22T04:20:35.063Z,1008.21
2022-10-22T04:21:39.358Z,1008.24
2022-10-22T04:22:43.727Z,1008.22
2022-10-22T04:23:48.141Z,1008.24
2022-10-22T04:24:52.460Z,1008.24
2022-10-22T04:25:56.776Z,1008.25
2022-10-22T04:27:01.203Z,1008.25
2022-10-22T04:28:05.587Z,1008.25
2022-10-22T04:29:13.372Z,1008.27
2022-10-22T04:30:14.272Z,1008.28
2022-10-22T04:31:18.682Z,1008.31
2022-10-22T04:32:22.946Z,1008.33
2022-10-22T04:33:27.346Z,1008.33
2022-10-22T04:34:31.726Z,1008.33
2022-10-22T04:35:36.023Z,1008.34
2022-10-22T04:36:40.396Z,1008.33
2022-10-22T04:37:44.801Z,1008.34
2022-10-22T04:38:49.174Z,1008.34
2022-10-22T04:39:53.499Z,1008.35
2022-10-22T04:40:57.636Z,1008.34
2022-10-22T04:42:02.158Z,1008.34
2022-10-22T04:43:06.512Z,1008.34
2022-10-22T04:44:13.629Z,1008.33
2022-10-22T04:45:15.013Z,1008.32
2022-10-22T04:46:19.507Z,1008.30
2022-10-22T04:47:23.937Z,1008.30
2022-10-22T04:48:28.276Z,1008.29
2022-10-22T04:49:32.590Z,1008.30
2022-10-22T04:50:37.018Z,1008.31
2022-10-22T04:51:41.320Z,1008.31
2022-10-22T04:52:45.640Z,1008.27
2022-10-22T04:53:49.996Z,1008.26
2022-10-22T04:54:54.320Z,1008.26
2022-10-22T04:55:58.705Z,1008.25
2022-10-22T04:57:03.009Z,1008.26
2022-10-22T04:58:07.442Z,1008.24
2022-10-22T04:59:11.717Z,1008.23
2022-10-22T05:00:16.064Z,1008.22
2022-10-22T05:01:20.595Z,1008.23
2022-10-22T05:02:24.854Z,1008.21
2022-10-22T05:03:29.263Z,1008.20
2022-10-22T05:04:33.620Z,1008.19
2022-10-22T05:05:37.995Z,1008.17
2022-10-22T05:06:42.391Z,1008.15
2022-10-22T05:07:46.682Z,1008.18
2022-10-22T05:08:51.057Z,1008.18
2022-10-22T05:09:58.337Z,1008.18
2022-10-22T05:11:01.768Z,1008.18
2022-10-22T05:12:06.168Z,1008.19
2022-10-22T05:13:10.433Z,1008.20
2022-10-22T05:14:14.843Z,1008.21
2022-10-22T05:15:19.210Z,1008.20
2022-10-22T05:16:23.582Z,1008.19
2022-10-22T05:17:27.829Z,1008.20
2022-10-22T05:18:32.183Z,1008.20
2022-10-22T05:19:36.357Z,1008.23
2022-10-22T05:20:40.760Z,1008.24
2022-10-22T05:21:45.099Z,1008.24
2022-10-22T05:22:49.428Z,1008.26
2022-10-22T05:23:53.850Z,1008.27
2022-10-22T05:24:58.238Z,1008.26
2022-10-22T05:26:02.489Z,1008.26
2022-10-22T05:27:07.005Z,1008.28
2022-10-22T05:28:11.345Z,1008.29
2022-10-22T05:29:15.711Z,1008.28
2022-10-22T05:30:20.037Z,1008.29
2022-10-22T05:31:24.383Z,1008.30
2022-10-22T05:32:28.743Z,1008.30
2022-10-22T05:33:33.133Z,1008.30
2022-10-22T05:34:37.530Z,1008.32
2022-10-22T05:35:46.593Z,1008.34
2022-10-22T05:36:46.144Z,1008.35
2022-10-22T05:37:50.583Z,1008.37
2022-10-22T05:38:54.848Z,1008.37
2022-10-22T05:40:12.331Z,1008.37
2022-10-22T05:41:03.556Z,1008.38
2022-10-22T05:42:07.922Z,1008.36
2022-10-22T05:43:12.331Z,1008.36
2022-10-22T05:44:16.718Z,1008.36
2022-10-22T05:45:21.008Z,1008.36
2022-10-22T05:46:25.364Z,1008.37
2022-10-22T05:47:29.797Z,1008.36
2022-10-22T05:48:34.171Z,1008.37
2022-10-22T05:49:38.474Z,1008.36
2022-10-22T05:50:42.860Z,1008.37
2022-10-22T05:51:47.158Z,1008.39
2022-10-22T05:52:51.619Z,1008.39
2022-10-22T05:53:55.916Z,1008.42
2022-10-22T05:55:00.022Z,1008.45
2022-10-22T05:56:04.367Z,1008.46
2022-10-22T05:57:08.782Z,1008.44
2022-10-22T05:58:13.099Z,1008.46
2022-10-22T05:59:17.416Z,1008.46
2022-10-22T06:00:21.764Z,1008.49
2022-10-22T06:01:26.200Z,1008.51
2022-10-22T06:02:30.586Z,1008.50
2022-10-22T06:03:34.846Z,1008.52
2022-10-22T06:04:39.216Z,1008.52
2022-10-22T06:05:43.543Z,1008.54
2022-10-22T06:06:47.942Z,1008.55
2022-10-22T06:07:52.331Z,1008.55
2022-10-22T06:08:56.720Z,1008.56
2022-10-22T06:10:01.059Z,1008.58
2022-10-22T06:11:05.445Z,1008.59
2022-10-22T06:12:09.806Z,1008.59
2022-10-22T06:13:14.172Z,1008.59
2022-10-22T06:14:18.482Z,1008.59
2022-10-22T06:15:22.888Z,1008.59
2022-10-22T06:16:27.251Z,1008.58
2022-10-22T06:17:31.601Z,1008.58
2022-10-22T06:18:35.718Z,1008.58
2022-10-22T06:19:40.213Z,1008.57
2022-10-22T06:20:44.594Z,1008.56
2022-10-22T06:21:48.899Z,1008.57
2022-10-22T06:22:53.334Z,1008.57
2022-10-22T06:23:57.599Z,1008.57
2022-10-22T06:25:01.985Z,1008.57
2022-10-22T06:26:06.294Z,1008.55
2022-10-22T06:27:10.721Z,1008.58
2022-10-22T06:28:15.013Z,1008.56
2022-10-22T06:29:19.318Z,1008.56
2022-10-22T06:30:23.744Z,1008.56
2022-10-22T06:31:27.998Z,1008.59
2022-10-22T06:32:32.308Z,1008.63
2022-10-22T06:33:36.572Z,1008.66
2022-10-22T06:34:40.997Z,1008.67
2022-10-22T06:35:45.353Z,1008.68
2022-10-22T06:36:49.704Z,1008.72
2022-10-22T06:37:54.175Z,1008.75
2022-10-22T06:38:58.309Z,1008.79
2022-10-22T06:40:02.715Z,1008.81
2022-10-22T06:41:07.052Z,1008.82
2022-10-22T06:42:11.407Z,1008.84
2022-10-22T06:43:15.762Z,1008.86
2022-10-22T06:44:20.169Z,1008.88
2022-10-22T06:45:24.541Z,1008.90
2022-10-22T06:46:28.841Z,1008.91
2022-10-22T06:47:33.248Z,1008.93
2022-10-22T06:48:37.549Z,1008.97
2022-10-22T06:49:41.871Z,1008.98
2022-10-22T06:50:46.167Z,1008.98
2022-10-22T06:51:50.605Z,1008.99
2022-10-22T06:52:54.965Z,1009.02
2022-10-22T06:53:59.323Z,1009.03
2022-10-22T06:55:03.671Z,1009.04
2022-10-22T06:56:08.067Z,1009.05
2022-10-22T06:57:12.360Z,1009.04
2022-10-22T06:58:16.763Z,1009.07
2022-10-22T06:59:21.092Z,1009.10
2022-10-22T07:00:25.522Z,1009.09
2022-10-22T07:01:29.879Z,1009.11
2022-10-22T07:02:34.215Z,1009.10
2022-10-22T07:03:38.487Z,1009.10
2022-10-22T07:04:42.846Z,1009.13
2022-10-22T07:05:47.187Z,1009.15
2022-10-22T07:06:51.499Z,1009.16
2022-10-22T07:07:55.891Z,1009.18
2022-10-22T07:09:00.370Z,1009.19
2022-10-22T07:10:04.507Z,1009.18
2022-10-22T07:11:08.787Z,1009.19
2022-10-22T07:12:13.183Z,1009.21
2022-10-22T07:13:17.590Z,1009.21
2022-10-22T07:14:21.887Z,1009.23
2022-10-22T07:15:26.214Z,1009.23
2022-10-22T07:16:32.491Z,1009.24
2022-10-22T07:17:34.892Z,1009.24
2022-10-22T07:18:39.171Z,1009.25
2022-10-22T07:19:44.596Z,1009.26
2022-10-22T07:20:47.886Z,1009.26
2022-10-22T07:21:52.209Z,1009.25
2022-10-22T07:22:56.619Z,1009.28
2022-10-22T07:24:00.844Z,1009.27
2022-10-22T07:25:07.476Z,1009.29
2022-10-22T07:26:09.569Z,1009.29
2022-10-22T07:27:14.008Z,1009.30
2022-10-22T07:28:18.248Z,1009.28
2022-10-22T07:29:22.671Z,1009.26
2022-10-22T07:30:26.937Z,1009.25
2022-10-22T07:31:31.334Z,1009.24
2022-10-22T07:32:35.680Z,1009.24
2022-10-22T07:33:40.044Z,1009.24
2022-10-22T07:34:44.395Z,1009.26
2022-10-22T07:35:48.656Z,1009.25
2022-10-22T07:36:53.032Z,1009.27
2022-10-22T07:37:57.377Z,1009.27
2022-10-22T07:39:01.634Z,1009.26
2022-10-22T07:40:06.013Z,1009.23
2022-10-22T07:41:10.418Z,1009.23
2022-10-22T07:42:14.711Z,1009.23
2022-10-22T07:43:19.083Z,1009.26
2022-10-22T07:44:23.272Z,1009.26
2022-10-22T07:45:27.685Z,1009.27
2022-10-22T07:46:32.113Z,1009.28
2022-10-22T07:47:36.436Z,1009.28
2022-10-22T07:48:40.727Z,1009.29
2022-10-22T07:49:45.059Z,1009.30
2022-10-22T07:50:49.399Z,1009.33
2022-10-22T07:51:53.759Z,1009.34
2022-10-22T07:52:58.456Z,1009.35
2022-10-22T07:54:02.415Z,1009.36
2022-10-22T07:55:06.756Z,1009.39
2022-10-22T07:56:11.172Z,1009.38
2022-10-22T07:57:15.484Z,1009.36
2022-10-22T07:58:19.909Z,1009.38
2022-10-22T07:59:24.128Z,1009.36
2022-10-22T08:00:28.410Z,1009.37
2022-10-22T08:01:32.874Z,1009.38
2022-10-22T08:02:37.156Z,1009.40
2022-10-22T08:03:41.500Z,1009.39
2022-10-22T08:04:45.866Z,1009.40
2022-10-22T08:05:50.224Z,1009.41
2022-10-22T08:06:54.667Z,1009.42
2022-10-22T08:07:58.973Z,1009.44
2022-10-22T08:09:03.430Z,1009.46
2022-10-22T08:10:07.683Z,1009.48
2022-10-22T08:11:12.056Z,1009.48
2022-10-22T08:12:16.405Z,1009.49
2022-10-22T08:13:20.831Z,1009.51
2022-10-22T08:14:39.229Z,1009.49
2022-10-22T08:15:42.430Z,1009.51
2022-10-22T08:16:46.787Z,1009.51
2022-10-22T08:17:51.183Z,1009.50
2022-10-22T08:18:55.587Z,1009.51
2022-10-22T08:19:59.867Z,1009.52
2022-10-22T08:21:04.253Z,1009.53
2022-10-22T08:22:08.601Z,1009.55
2022-10-22T08:23:13.023Z,1009.58
2022-10-22T08:24:17.320Z,1009.60
2022-10-22T08:25:21.654Z,1009.62
2022-10-22T08:26:26.104Z,1009.61
2022-10-22T08:27:30.490Z,1009.61
2022-10-22T08:28:34.871Z,1009.63
2022-10-22T08:29:39.176Z,1009.65
2022-10-22T08:30:43.626Z,1009.63
2022-10-22T08:31:47.990Z,1009.67
2022-10-22T08:32:54.013Z,1009.69
2022-10-22T08:33:56.647Z,1009.70
2022-10-22T08:35:01.031Z,1009.72
2022-10-22T08:36:05.460Z,1009.73
2022-10-22T08:37:09.840Z,1009.75
2022-10-22T08:38:14.167Z,1009.77
2022-10-22T08:39:18.454Z,1009.78
2022-10-22T08:40:22.828Z,1009.78
2022-10-22T08:41:27.254Z,1009.80
2022-10-22T08:42:31.562Z,1009.78
2022-10-22T08:43:35.894Z,1009.80
2022-10-22T08:44:40.260Z,1009.81
2022-10-22T08:45:44.678Z,1009.83
2022-10-22T08:46:49.014Z,1009.83
2022-10-22T08:47:53.422Z,1009.82
2022-10-22T08:48:57.921Z,1009.84
2022-10-22T08:50:02.075Z,1009.84
2022-10-22T08:51:06.519Z,1009.85
2022-10-22T08:52:10.891Z,1009.86
2022-10-22T08:53:15.217Z,1009.86
2022-10-22T08:54:19.520Z,1009.84
2022-10-22T08:55:23.910Z,1009.84
2022-10-22T08:56:28.345Z,1009.85
2022-10-22T08:57:32.669Z,1009.86
2022-10-22T08:58:37.120Z,1009.86
2022-10-22T08:59:41.461Z,1009.87
2022-10-22T09:00:45.904Z,1009.88
2022-10-22T09:01:50.216Z,1009.88
2022-10-22T09:02:54.625Z,1009.90
2022-10-22T09:03:58.971Z,1009.90
2022-10-22T09:05:03.300Z,1009.90
2022-10-22T09:06:07.734Z,1009.92
2022-10-22T09:07:11.954Z,1009.92
2022-10-22T09:08:16.383Z,1009.94
2022-10-22T09:09:20.703Z,1009.95
2022-10-22T09:10:25.124Z,1009.97
2022-10-22T09:11:29.420Z,1009.92
2022-10-22T09:12:33.837Z,1009.92
2022-10-22T09:13:38.154Z,1009.92
2022-10-22T09:14:42.486Z,1009.93
2022-10-22T09:15:47.453Z,1009.93
2022-10-22T09:16:51.304Z,1009.94
2022-10-22T09:17:55.610Z,1009.95
2022-10-22T09:18:59.958Z,1009.97
2022-10-22T09:20:04.368Z,1009.97
2022-10-22T09:21:08.717Z,1009.97
2022-10-22T09:22:13.073Z,1010.01
2022-10-22T09:23:17.402Z,1010.03
2022-10-22T09:24:21.763Z,1010.05
2022-10-22T09:25:26.095Z,1010.05
2022-10-22T09:26:30.482Z,1010.05
2022-10-22T09:27:34.834Z,1010.07
2022-10-22T09:28:39.180Z,1010.08
2022-10-22T09:29:43.608Z,1010.06
2022-10-22T09:30:48.006Z,1010.07
2022-10-22T09:31:52.390Z,1010.07
2022-10-22T09:32:56.745Z,1010.08
2022-10-22T09:34:01.064Z,1010.09
2022-10-22T09:35:05.553Z,1010.08
2022-10-22T09:36:09.906Z,1010.10
2022-10-22T09:37:14.200Z,1010.07
2022-10-22T09:38:18.669Z,1010.08
2022-10-22T09:39:22.974Z,1010.09
2022-10-22T09:40:27.322Z,1010.10
2022-10-22T09:41:31.666Z,1010.11
2022-10-22T09:42:36.011Z,1010.13
2022-10-22T09:43:40.342Z,1010.15
2022-10-22T09:44:47.676Z,1010.16
2022-10-22T09:45:49.123Z,1010.16
2022-10-22T09:46:53.537Z,1010.17
2022-10-22T09:48:01.880Z,1010.19
2022-10-22T09:49:02.224Z,1010.19
2022-10-22T09:50:06.609Z,1010.23
2022-10-22T09:51:10.986Z,1010.24
2022-10-22T09:52:15.318Z,1010.26
2022-10-22T09:53:19.691Z,1010.27
2022-10-22T09:54:24.057Z,1010.27
2022-10-22T09:55:28.422Z,1010.28
2022-10-22T09:56:32.878Z,1010.29
2022-10-22T09:57:38.799Z,1010.30
2022-10-22T09:58:41.578Z,1010.30
2022-10-22T09:59:45.988Z,1010.32
2022-10-22T10:00:50.435Z,1010.33
2022-10-22T10:01:54.749Z,1010.34
2022-10-22T10:02:59.289Z,1010.32
2022-10-22T10:04:08.417Z,1010.36
2022-10-22T10:05:08.032Z,1010.37
2022-10-22T10:06:12.313Z,1010.38
2022-10-22T10:07:16.809Z,1010.40
2022-10-22T10:08:21.103Z,1010.41
2022-10-22T10:09:25.593Z,1010.42
2022-10-22T10:10:29.926Z,1010.42
2022-10-22T10:11:34.395Z,1010.42
2022-10-22T10:12:38.806Z,1010.43
2022-10-22T10:13:43.199Z,1010.43
2022-10-22T10:14:47.508Z,1010.45
2022-10-22T10:15:51.852Z,1010.43
2022-10-22T10:16:56.317Z,1010.45
2022-10-22T10:18:00.607Z,1010.45
2022-10-22T10:19:05.007Z,1010.47
2022-10-22T10:20:09.353Z,1010.49
2022-10-22T10:22:18.114Z,1010.47
2022-10-22T10:23:24.599Z,1010.47
2022-10-22T10:24:26.851Z,1010.46
2022-10-22T10:25:31.182Z,1010.46
2022-10-22T10:26:35.571Z,1010.42
2022-10-22T10:27:39.981Z,1010.41
2022-10-22T10:28:44.345Z,1010.39
2022-10-22T10:29:48.718Z,1010.38
2022-10-22T10:30:53.093Z,1010.37
2022-10-22T10:31:57.527Z,1010.37
2022-10-22T10:33:01.956Z,1010.38
2022-10-22T10:34:06.310Z,1010.38
2022-10-22T10:35:10.684Z,1010.36
2022-10-22T10:36:15.062Z,1010.38
2022-10-22T10:37:19.524Z,1010.34
2022-10-22T10:38:27.241Z,1010.34
2022-10-22T10:39:28.269Z,1010.32
2022-10-22T10:40:32.632Z,1010.33
2022-10-22T10:41:36.997Z,1010.33
2022-10-22T10:42:41.900Z,1010.31
2022-10-22T10:43:45.796Z,1010.29
2022-10-22T10:44:50.238Z,1010.30
2022-10-22T10:45:55.754Z,1010.27
2022-10-22T10:46:58.959Z,1010.25
2022-10-22T10:48:03.308Z,1010.25
2022-10-22T10:49:07.767Z,1010.25
2022-10-22T10:50:12.233Z,1010.25
2022-10-22T10:51:16.495Z,1010.25
2022-10-22T10:52:21.454Z,1010.27
2022-10-22T10:53:25.328Z,1010.27
2022-10-22T10:54:29.868Z,1010.29
2022-10-22T10:55:34.197Z,1010.28
2022-10-22T10:56:39.295Z,1010.29
2022-10-22T10:57:43.084Z,1010.31
2022-10-22T10:58:47.288Z,1010.31
2022-10-22T10:59:51.659Z,1010.30
2022-10-22T11:00:56.109Z,1010.28
2022-10-22T11:02:00.584Z,1010.27
2022-10-22T11:03:04.746Z,1010.26
2022-10-22T11:04:09.190Z,1010.26
2022-10-22T11:05:13.651Z,1010.27
2022-10-22T11:06:19.479Z,1010.25
2022-10-22T11:07:34.123Z,1010.23
2022-10-22T11:08:26.840Z,1010.26
2022-10-22T11:09:31.317Z,1010.24
2022-10-22T11:10:35.664Z,1010.25
2022-10-22T11:11:40.183Z,1010.25
2022-10-22T11:12:44.787Z,1010.24
2022-10-22T11:13:49.010Z,1010.23
2022-10-22T11:14:53.370Z,1010.23
2022-10-22T11:15:57.771Z,1010.25
2022-10-22T11:17:02.178Z,1010.24
2022-10-22T11:18:06.560Z,1010.24
2022-10-22T11:19:11.280Z,1010.21
2022-10-22T11:20:15.351Z,1010.20
2022-10-22T11:21:19.746Z,1010.18
2022-10-22T11:22:26.747Z,1010.17
2022-10-22T11:23:28.595Z,1010.16
2022-10-22T11:24:32.910Z,1010.18
2022-10-22T11:25:37.395Z,1010.15
2022-10-22T11:26:41.762Z,1010.13
2022-10-22T11:27:46.304Z,1010.15
2022-10-22T11:28:50.646Z,1010.15
2022-10-22T11:29:54.999Z,1010.14
2022-10-22T11:30:59.486Z,1010.14
2022-10-22T11:32:03.718Z,1010.14
2022-10-22T11:33:08.157Z,1010.16
2022-10-22T11:34:32.787Z,1010.14
2022-10-22T11:35:16.995Z,1010.14
2022-10-22T11:36:21.536Z,1010.16
2022-10-22T11:37:25.903Z,1010.13
2022-10-22T11:38:32.833Z,1010.14
2022-10-22T11:39:34.648Z,1010.18
2022-10-22T11:40:39.045Z,1010.16
2022-10-22T11:41:43.538Z,1010.16
2022-10-22T11:42:47.898Z,1010.17
2022-10-22T11:43:55.333Z,1010.18
2022-10-22T11:44:58.787Z,1010.19
2022-10-22T11:46:09.152Z,1010.20
2022-10-22T11:47:12.310Z,1010.17
2022-10-22T11:48:16.648Z,1010.16
2022-10-22T11:49:21.044Z,1010.18
2022-10-22T11:50:25.472Z,1010.18
2022-10-22T11:51:29.731Z,1010.17
2022-10-22T11:52:34.215Z,1010.19
2022-10-22T11:53:38.593Z,1010.17
2022-10-22T11:54:42.965Z,1010.19
2022-10-22T11:55:47.327Z,1010.20
2022-10-22T11:56:51.725Z,1010.20
2022-10-22T11:57:56.108Z,1010.17
2022-10-22T11:59:00.501Z,1010.16
2022-10-22T12:00:04.884Z,1010.15
2022-10-22T12:01:09.318Z,1010.12
2022-10-22T12:02:13.693Z,1010.14
2022-10-22T12:03:18.190Z,1010.12
2022-10-22T12:04:22.620Z,1010.14
2022-10-22T12:05:27.017Z,1010.13
2022-10-22T12:06:31.420Z,1010.11
2022-10-22T12:07:35.831Z,1010.12
2022-10-22T12:08:40.281Z,1010.12
2022-10-22T12:09:44.660Z,1010.10
2022-10-22T12:10:49.104Z,1010.10
2022-10-22T12:11:53.484Z,1010.09
2022-10-22T12:12:57.874Z,1010.08
2022-10-22T12:14:02.342Z,1010.09
2022-10-22T12:15:06.781Z,1010.09
2022-10-22T12:16:14.196Z,1010.11
2022-10-22T12:17:15.686Z,1010.12
2022-10-22T12:18:20.160Z,1010.10
2022-10-22T12:19:24.625Z,1010.10
2022-10-22T12:20:29.029Z,1010.08
2022-10-22T12:21:33.463Z,1010.07
2022-10-22T12:22:38.028Z,1010.06
2022-10-22T12:25:09.810Z,1010.04
2022-10-22T12:26:14.131Z,1010.03
2022-10-22T12:27:22.217Z,1010.02
2022-10-22T12:28:22.899Z,1010.01
2022-10-22T12:29:27.466Z,1010.00
2022-10-22T12:30:31.905Z,1010.00
2022-10-22T12:31:36.377Z,1010.00
2022-10-22T12:32:40.775Z,1009.98
2022-10-22T12:33:45.215Z,1009.99
2022-10-22T12:35:54.049Z,1009.95
2022-10-22T12:38:26.004Z,1009.90
2022-10-22T12:39:30.441Z,1009.91
2022-10-22T12:40:34.802Z,1009.88
2022-10-22T12:41:39.278Z,1009.88
2022-10-22T12:42:43.790Z,1009.89
2022-10-22T12:43:48.156Z,1009.90
2022-10-22T12:44:52.578Z,1009.89
2022-10-22T12:45:56.930Z,1009.91
2022-10-22T12:47:15.487Z,1009.95
2022-10-22T12:48:18.843Z,1009.97
2022-10-22T12:49:23.179Z,1009.95
2022-10-22T12:50:27.600Z,1009.93
2022-10-22T12:52:36.420Z,1009.91
2022-10-22T12:53:40.903Z,1009.91
2022-10-22T12:54:45.248Z,1009.94
2022-10-22T12:55:49.683Z,1009.94
2022-10-22T12:56:54.174Z,1009.94
2022-10-22T12:57:58.563Z,1009.95
2022-10-22T12:59:03.075Z,1009.93
2022-10-22T13:00:07.474Z,1009.93
2022-10-22T13:01:12.017Z,1009.94
2022-10-22T13:02:16.307Z,1009.96
2022-10-22T13:03:20.729Z,1009.94
2022-10-22T13:04:25.243Z,1009.94
2022-10-22T13:05:29.692Z,1009.94